createdAt,value
2023-02-08T00:02:46.823Z,103154.92
2023-02-08T00:06:23.566Z,103153.57
2023-02-08T00:09:49.453Z,103152.64
2023-02-08T00:13:11.640Z,103159.72
2023-02-08T00:16:41.760Z,103161.03
2023-02-08T00:20:20.053Z,103163.70
2023-02-08T00:23:38.948Z,103172.54
2023-02-08T00:27:02.011Z,103178.76
2023-02-08T00:30:44.706Z,103184.55
2023-02-08T00:34:17.062Z,103188.95
2023-02-08T00:37:31.981Z,103181.38
2023-02-08T00:40:56.682Z,103182.67
2023-02-08T00:44:18.828Z,103188.84
2023-02-08T00:47:31.228Z,103186.58
2023-02-08T00:51:07.400Z,103186.13
2023-02-08T00:54:40.442Z,103185.67
2023-02-08T01:01:18.837Z,103176.83
2023-02-08T01:04:32.954Z,103185.13
2023-02-08T01:08:24.926Z,103185.07
2023-02-08T01:11:58.025Z,103185.07
2023-02-08T01:15:30.719Z,103199.61
2023-02-08T01:19:00.532Z,103201.80
2023-02-08T01:22:19.494Z,103202.69
2023-02-08T01:29:19.030Z,103218.10
2023-02-08T01:32:33.090Z,103219.30
2023-02-08T01:35:51.026Z,103218.79
2023-02-08T01:39:13.174Z,103218.79
2023-02-08T01:42:27.729Z,103217.46
2023-02-08T01:46:03.709Z,103232.89
2023-02-08T01:49:36.894Z,103219.60
2023-02-08T01:52:49.809Z,103231.94
2023-02-08T01:56:09.599Z,103223.02
2023-02-08T01:59:46.075Z,103236.27
2023-02-08T02:03:19.584Z,103243.34
2023-02-08T02:06:47.253Z,103248.20
2023-02-08T02:10:28.539Z,103242.02
2023-02-08T02:13:49.047Z,103242.02
2023-02-08T02:17:13.333Z,103251.83
2023-02-08T02:20:58.524Z,103260.19
2023-02-08T02:24:58.722Z,103250.50
2023-02-08T02:28:57.344Z,103266.39
2023-02-08T02:36:23.300Z,103279.69
2023-02-08T02:39:55.141Z,103282.62
2023-02-08T02:43:55.114Z,103282.62
2023-02-08T02:47:23.699Z,103293.21
2023-02-08T02:54:44.428Z,103295.39
2023-02-08T02:58:01.144Z,103305.02
2023-02-08T03:01:24.823Z,103305.05
2023-02-08T03:04:59.916Z,103305.86
2023-02-08T03:09:02.494Z,103305.70
2023-02-08T03:12:45.075Z,103311.98
2023-02-08T03:16:30.373Z,103300.16
2023-02-08T03:19:55.972Z,103305.93
2023-02-08T03:23:49.347Z,103312.52
2023-02-08T03:31:44.715Z,103317.62
2023-02-08T03:35:17.690Z,103316.25
2023-02-08T03:39:00.000Z,103323.77
2023-02-08T03:42:47.951Z,103326.32
2023-02-08T03:46:46.225Z,103339.00
2023-02-08T03:54:08.100Z,103344.98
2023-02-08T04:22:41.776Z,103358.98
2023-02-08T04:25:57.879Z,103366.36
2023-02-08T04:29:22.117Z,103369.41
2023-02-08T04:32:52.048Z,103371.58
2023-02-08T04:36:02.454Z,103365.42
2023-02-08T04:39:23.585Z,103371.64
2023-02-08T04:42:43.055Z,103368.57
2023-02-08T04:46:15.092Z,103383.94
2023-02-08T04:49:37.036Z,103392.70
2023-02-08T04:52:59.812Z,103395.34
2023-02-08T04:56:24.207Z,103403.24
2023-02-08T04:59:46.555Z,103411.05
2023-02-08T05:03:22.838Z,103408.41
2023-02-08T05:06:50.810Z,103418.09
2023-02-08T05:10:05.464Z,103413.56
2023-02-08T05:13:21.954Z,103429.45
2023-02-08T05:16:40.637Z,103431.76
2023-02-08T05:19:59.902Z,103435.28
2023-02-08T05:23:31.961Z,103447.17
2023-02-08T05:26:55.341Z,103441.02
2023-02-08T05:30:29.876Z,103446.34
2023-02-08T05:34:08.398Z,103452.23
2023-02-08T05:37:30.228Z,103449.15
2023-02-08T05:41:13.158Z,103451.88
2023-02-08T05:44:25.976Z,103456.38
2023-02-08T05:48:08.694Z,103448.06
2023-02-08T05:51:32.056Z,103462.25
2023-02-08T05:54:43.103Z,103456.83
2023-02-08T05:58:34.163Z,103452.73
2023-02-08T07:28:32.618Z,103501.72
2023-02-08T08:02:08.841Z,103517.17
2023-02-08T08:27:56.702Z,103539.48
2023-02-08T09:57:59.249Z,103516.98
2023-02-08T10:01:35.816Z,103518.77
2023-02-08T10:17:09.417Z,103513.22
2023-02-08T10:25:05.066Z,103516.86
2023-02-08T10:32:46.790Z,103516.04
2023-02-08T10:36:17.526Z,103514.45
2023-02-08T10:48:03.159Z,103510.89
2023-02-08T10:51:33.198Z,103516.23
2023-02-08T11:09:41.295Z,103516.48
2023-02-08T11:52:56.571Z,103512.50
2023-02-08T12:16:35.823Z,103516.31
2023-02-08T12:32:14.430Z,103511.30
2023-02-08T12:36:39.791Z,103507.55
2023-02-08T12:52:39.233Z,103504.30
2023-02-08T13:11:10.752Z,103481.53
2023-02-08T13:40:08.707Z,103490.07
2023-02-08T13:43:44.387Z,103479.33
2023-02-08T13:51:29.885Z,103482.51
2023-02-08T14:11:16.209Z,103465.58
2023-02-08T14:29:16.067Z,103467.66
2023-02-08T14:33:04.287Z,103465.17
2023-02-08T14:36:54.269Z,103462.30
2023-02-08T14:40:37.405Z,103464.52
2023-02-08T14:44:15.440Z,103461.32
2023-02-08T14:48:01.209Z,103467.86
2023-02-08T14:56:03.007Z,103474.45
2023-02-08T14:59:23.796Z,103474.70
2023-02-08T15:02:51.485Z,103480.24
2023-02-08T15:06:28.584Z,103489.67
2023-02-08T15:09:48.055Z,103491.03
2023-02-08T15:13:11.327Z,103499.95
2023-02-08T15:16:32.692Z,103493.23
2023-02-08T15:19:52.245Z,103497.23
2023-02-08T15:23:21.036Z,103491.51
2023-02-08T15:26:46.747Z,103495.56
2023-02-08T15:30:02.125Z,103488.99
2023-02-08T15:33:32.256Z,103498.01
2023-02-08T15:36:50.599Z,103491.83
2023-02-08T15:40:05.367Z,103490.97
2023-02-08T15:43:21.470Z,103491.44
2023-02-08T15:46:44.603Z,103500.31
2023-02-08T15:50:02.787Z,103500.80
2023-02-08T15:53:29.529Z,103499.45
2023-02-08T15:56:45.074Z,103508.80
2023-02-08T15:59:55.973Z,103511.48
2023-02-08T16:03:26.391Z,103509.69
2023-02-08T16:06:48.663Z,103509.22
2023-02-08T16:10:05.590Z,103509.66
2023-02-08T16:13:42.893Z,103512.74
2023-02-08T16:17:04.901Z,103504.76
2023-02-08T16:21:05.624Z,103511.36
2023-02-08T16:24:47.669Z,103509.08
2023-02-08T16:28:06.668Z,103513.89
2023-02-08T16:31:43.898Z,103512.06
2023-02-08T16:35:07.990Z,103520.52
2023-02-08T16:38:32.121Z,103521.86
2023-02-08T16:42:15.830Z,103532.51
2023-02-08T16:45:35.346Z,103532.91
2023-02-08T16:49:27.429Z,103535.08
2023-02-08T16:52:46.608Z,103531.45
2023-02-08T16:56:05.512Z,103530.52
2023-02-08T16:59:21.395Z,103524.73
2023-02-08T17:02:35.317Z,103519.39
2023-02-08T17:05:48.673Z,103529.53
2023-02-08T17:09:37.660Z,103533.94
2023-02-08T17:13:18.610Z,103536.16
2023-02-08T17:16:21.119Z,103530.84
2023-02-08T17:19:34.631Z,103538.37
2023-02-08T17:22:54.958Z,103535.61
2023-02-08T17:26:17.487Z,103525.36
2023-02-08T17:29:36.269Z,103523.14
2023-02-08T17:36:22.195Z,103524.31
2023-02-08T17:39:37.092Z,103515.38
2023-02-08T17:42:53.754Z,103510.47
2023-02-08T17:46:15.122Z,103520.23
2023-02-08T17:49:34.459Z,103515.30
2023-02-08T17:53:10.611Z,103512.54
2023-02-08T17:56:27.304Z,103504.52
2023-02-08T17:59:42.150Z,103510.30
2023-02-08T18:03:03.751Z,103505.44
2023-02-08T18:10:35.026Z,103513.58
2023-02-08T18:14:01.900Z,103503.42
2023-02-08T18:17:37.219Z,103512.32
2023-02-08T18:21:23.012Z,103514.97
2023-02-08T18:28:28.564Z,103523.50
2023-02-08T18:31:44.829Z,103513.66
2023-02-08T18:35:16.674Z,103521.96
2023-02-08T18:38:36.023Z,103522.72
2023-02-08T18:41:50.189Z,103530.23
2023-02-08T18:45:26.974Z,103530.66
2023-02-08T18:48:46.036Z,103537.24
2023-02-08T18:52:10.427Z,103537.24
2023-02-08T18:55:33.901Z,103534.59
2023-02-08T18:58:57.570Z,103535.03
2023-02-08T19:03:22.587Z,103531.04
2023-02-08T19:06:57.742Z,103527.50
2023-02-08T19:10:40.870Z,103527.30
2023-02-08T19:14:35.633Z,103527.30
2023-02-08T19:17:54.233Z,103525.34
2023-02-08T19:21:10.441Z,103525.34
2023-02-08T19:24:34.214Z,103514.69
2023-02-08T19:27:49.127Z,103513.28
2023-02-08T19:31:37.142Z,103508.37
2023-02-08T19:35:02.361Z,103521.08
2023-02-08T19:38:28.093Z,103513.96
2023-02-08T19:41:55.728Z,103501.66
2023-02-08T19:45:17.566Z,103508.41
2023-02-08T19:48:58.450Z,103511.63
2023-02-08T19:52:12.501Z,103508.16
2023-02-08T19:59:08.563Z,103502.91
2023-02-08T20:02:50.465Z,103500.39
2023-02-08T20:06:19.984Z,103500.39
2023-02-08T20:09:38.342Z,103491.17
2023-02-08T20:12:56.030Z,103486.78
2023-02-08T20:16:08.185Z,103497.53
2023-02-08T20:19:24.766Z,103493.16
2023-02-08T20:22:58.911Z,103493.16
2023-02-08T20:26:52.993Z,103498.88
2023-02-08T20:30:18.200Z,103495.26
2023-02-08T20:33:37.936Z,103501.73
2023-02-08T20:37:06.980Z,103496.81
2023-02-08T20:40:14.581Z,103496.81
2023-02-08T20:43:26.898Z,103503.02
2023-02-08T20:46:49.238Z,103502.55
2023-02-08T20:50:20.463Z,103497.56
2023-02-08T20:53:42.845Z,103488.57
2023-02-08T20:56:55.865Z,103494.13
2023-02-08T21:05:14.820Z,103506.65
2023-02-08T21:12:49.015Z,103509.32
2023-02-08T21:16:36.007Z,103508.90
2023-02-08T21:20:07.604Z,103505.58
2023-02-08T21:23:28.003Z,103507.22
2023-02-08T21:27:04.797Z,103497.95
2023-02-08T21:30:28.328Z,103494.08
2023-02-08T21:33:52.354Z,103494.08
2023-02-08T21:37:18.067Z,103489.38
2023-02-08T21:40:39.094Z,103485.55
2023-02-08T21:44:00.942Z,103490.56
2023-02-08T21:47:25.712Z,103488.04
2023-02-08T21:51:04.414Z,103477.37
2023-02-08T21:54:38.674Z,103477.37
2023-02-08T21:58:04.900Z,103474.78
2023-02-08T22:01:22.997Z,103481.38
2023-02-08T22:04:47.100Z,103481.20
2023-02-08T22:08:19.101Z,103475.47
2023-02-08T22:11:57.831Z,103475.08
2023-02-08T22:15:34.883Z,103470.17
